»·PEaware :: UAL1399 KGJT-KDEN

UAL1399 :: KGJT-KDEN

FLIGHT INFORMATION

Flight Status: Arrived
Operator:
United Airlines
More flights by this operator :: More flights under this callsign
Pilot: David C. (16084)
Aircraft: EMBRAER EMB-170/175
(E170)
More flights by this aircraft type
Origin: KGJT Walker
United States
Destination: KDEN Denver Intl
United States
More flights between these airports :: More routes between these airports
Route: +JNC7 JNC HAQHY TELLR2
File this flight plan on PilotEdge
Remarks:
Altitude:
(Current/Filed)
27,000ft
Speed:
(Current/Filed)
379kts
Departed: 02-Dec-17 12:21 PM
Arrived: 02-Dec-17 01:05 PM
Distance/Time
Traveled:
184nm/0:44
Distance/Time
To Go:
Arrived

Flight Plot

Page will automatically refresh every two minutes.

Flight plan parsing failed; only flown route is shown


Map Options




Map Legend


Flown Route
Filed Route
Departure Airport
Arrival Airport
Navaid (VOR, NDB)
Fix

Horizontal Profiles

Position Reports

Time Latitude Longitude Heading Altitude Ground
Speed
02-Dec-17 11:35 39.123283 -108.528955 213 4864ft 0kts
02-Dec-17 11:36 39.123283 -108.528955 213 4864ft 0kts
02-Dec-17 11:37 39.123283 -108.528955 213 4864ft 0kts
02-Dec-17 11:38 39.123283 -108.528955 213 4864ft 0kts
02-Dec-17 11:39 39.123283 -108.528955 213 4864ft 0kts
02-Dec-17 11:40 39.123283 -108.528955 213 4864ft 0kts
02-Dec-17 11:41 39.123283 -108.528955 213 4864ft 0kts
02-Dec-17 11:42 39.123283 -108.528955 213 4864ft 0kts
02-Dec-17 11:43 39.123283 -108.528955 213 4864ft 0kts
02-Dec-17 11:44 39.123283 -108.528955 213 4864ft 0kts
02-Dec-17 11:45 39.123283 -108.528955 213 4864ft 0kts
02-Dec-17 11:46 39.123283 -108.528955 213 4864ft 0kts
02-Dec-17 11:47 39.123283 -108.528955 213 4864ft 0kts
02-Dec-17 11:48 39.123283 -108.528955 213 4864ft 0kts
02-Dec-17 11:49 39.123283 -108.528955 213 4864ft 0kts
02-Dec-17 11:50 39.123283 -108.528955 213 4864ft 0kts
02-Dec-17 11:51 39.123283 -108.528955 213 4864ft 0kts
02-Dec-17 11:52 39.123283 -108.528955 213 4864ft 0kts
02-Dec-17 11:53 39.123283 -108.528955 213 4864ft 0kts
02-Dec-17 11:54 39.123283 -108.528955 213 4864ft 0kts
02-Dec-17 11:55 39.123283 -108.528955 213 4864ft 0kts
02-Dec-17 11:56 39.123283 -108.528955 213 4864ft 0kts
02-Dec-17 11:57 39.123283 -108.528955 213 4864ft 0kts
02-Dec-17 11:58 39.123283 -108.528955 213 4864ft 0kts
02-Dec-17 11:59 39.123283 -108.528955 213 4864ft 0kts
02-Dec-17 12:00 39.123283 -108.528955 213 4864ft 0kts
02-Dec-17 12:01 39.123283 -108.528955 213 4864ft 0kts
02-Dec-17 12:02 39.123283 -108.528955 213 4864ft 0kts
02-Dec-17 12:03 39.123283 -108.528955 213 4864ft 0kts
02-Dec-17 12:04 39.123283 -108.528955 213 4864ft 0kts
02-Dec-17 12:05 39.123283 -108.528955 213 4864ft 0kts
02-Dec-17 12:06 39.123283 -108.528955 213 4864ft 0kts
02-Dec-17 12:07 39.123283 -108.528955 213 4864ft 0kts
02-Dec-17 12:08 39.123283 -108.528955 213 4864ft 0kts
02-Dec-17 12:09 39.123283 -108.528955 213 4864ft 0kts
02-Dec-17 12:10 39.123283 -108.528955 213 4864ft 0kts
02-Dec-17 12:11 39.123283 -108.528955 213 4864ft 0kts
02-Dec-17 12:12 39.123283 -108.528955 213 4864ft 0kts
02-Dec-17 12:13 39.123283 -108.528954 211 4864ft 0kts
02-Dec-17 12:14 39.123688 -108.529067 124 4864ft 0kts
02-Dec-17 12:15 39.123692 -108.529075 123 4864ft 0kts
02-Dec-17 12:16 39.123692 -108.529075 123 4864ft 0kts
02-Dec-17 12:17 39.123692 -108.529075 123 4864ft 0kts
02-Dec-17 12:18 39.123692 -108.529075 123 4864ft 0kts
02-Dec-17 12:19 39.123692 -108.529075 123 4864ft 0kts
02-Dec-17 12:20 39.123692 -108.529075 123 4864ft 0kts
02-Dec-17 12:21 39.123631 -108.528894 99 4864ft 7kts
02-Dec-17 12:22 39.121665 -108.522532 125 4864ft 36kts
02-Dec-17 12:23 39.118320 -108.516443 122 4864ft 0kts
02-Dec-17 12:24 39.118320 -108.516443 122 4864ft 0kts
02-Dec-17 12:25 39.118318 -108.516437 122 4864ft 0kts
02-Dec-17 12:26 39.124384 -108.525175 302 4865ft 151kts
02-Dec-17 12:27 39.147909 -108.584146 271 7018ft 233kts
02-Dec-17 12:28 39.121624 -108.650211 233 11183ft 214kts
02-Dec-17 12:29 39.090915 -108.715440 240 13683ft 217kts
02-Dec-17 12:30 39.048856 -108.766638 191 14005ft 226kts
02-Dec-17 12:31 38.994566 -108.727421 120 14007ft 257kts
02-Dec-17 12:32 38.992067 -108.634936 92 13996ft 266kts
02-Dec-17 12:33 38.974264 -108.543920 116 16536ft 272kts
02-Dec-17 12:34 38.944852 -108.453485 118 19369ft 285kts
02-Dec-17 12:35 38.912913 -108.359422 119 21892ft 298kts
02-Dec-17 12:36 38.880277 -108.263925 119 24101ft 310kts
02-Dec-17 12:37 38.845189 -108.161547 120 26106ft 323kts
02-Dec-17 12:38 38.827413 -108.041071 82 26292ft 399kts
02-Dec-17 12:39 38.851183 -107.888299 80 26278ft 478kts
02-Dec-17 12:40 38.876933 -107.721037 80 26255ft 481kts
02-Dec-17 12:41 38.902426 -107.553544 80 26278ft 483kts
02-Dec-17 12:42 38.927775 -107.385208 80 26302ft 486kts
02-Dec-17 12:43 38.952956 -107.216361 80 26305ft 489kts
02-Dec-17 12:44 38.978077 -107.046065 80 26298ft 492kts
02-Dec-17 12:45 39.003153 -106.873759 79 26283ft 494kts
02-Dec-17 12:46 39.028068 -106.701698 78 26295ft 495kts
02-Dec-17 12:47 39.052816 -106.528568 79 26334ft 496kts
02-Dec-17 12:48 39.075579 -106.367440 79 26337ft 496kts
02-Dec-17 12:49 39.099675 -106.195027 79 26306ft 496kts
02-Dec-17 12:50 39.152012 -106.035782 57 26294ft 492kts
02-Dec-17 12:51 39.217277 -105.887772 57 26250ft 457kts
02-Dec-17 12:52 39.274843 -105.756687 57 26295ft 423kts
02-Dec-17 12:53 39.331734 -105.626870 57 24628ft 404kts
02-Dec-17 12:54 39.384439 -105.502978 66 20794ft 389kts
02-Dec-17 12:55 39.399549 -105.376060 86 16796ft 342kts
02-Dec-17 12:56 39.404830 -105.262259 87 15368ft 333kts
02-Dec-17 12:57 39.410020 -105.147971 87 14266ft 320kts
02-Dec-17 12:58 39.415002 -105.035736 87 13174ft 310kts
02-Dec-17 12:59 39.419093 -104.943891 85 12931ft 311kts
02-Dec-17 13:00 39.428558 -104.835790 83 11519ft 298kts
02-Dec-17 13:01 39.442297 -104.742087 69 11030ft 243kts
02-Dec-17 13:02 39.487279 -104.683557 17 11052ft 242kts
02-Dec-17 13:03 39.551449 -104.665115 0 11049ft 240kts
02-Dec-17 13:04 39.616987 -104.663075 358 10603ft 221kts
02-Dec-17 13:05 39.671352 -104.664012 355 8312ft 187kts
02-Dec-17 13:06 39.718794 -104.663149 356 6493ft 163kts
02-Dec-17 13:07 39.759471 -104.661759 1 7265ft 144kts
02-Dec-17 13:08 39.802166 -104.661032 358 6224ft 159kts
02-Dec-17 13:09 39.842771 -104.660499 358 5439ft 127kts
02-Dec-17 13:10 39.852945 -104.661677 327 5438ft 0kts
02-Dec-17 13:11 39.855185 -104.662400 351 5438ft 19kts
02-Dec-17 13:12 39.856258 -104.669250 315 5438ft 21kts
02-Dec-17 13:13 39.858129 -104.669622 2 5438ft 0kts
02-Dec-17 13:14 39.858129 -104.669622 2 5438ft 0kts

Navigation Log

Ident Type
Flight plan parsing failed, navigation log unavailable